createdAt,value
2023-06-14T00:00:45.598Z,67.43
2023-06-14T00:01:49.678Z,67.57
2023-06-14T00:02:53.020Z,67.31
2023-06-14T00:03:56.545Z,67.63
2023-06-14T00:05:08.815Z,68.09
2023-06-14T00:06:31.838Z,68.13
2023-06-14T00:07:45.749Z,67.99
2023-06-14T00:08:48.686Z,67.55
2023-06-14T00:09:51.810Z,66.86
2023-06-14T00:11:01.809Z,66.47
2023-06-14T00:12:05.095Z,66.26
2023-06-14T00:13:13.670Z,66.16
2023-06-14T00:14:19.517Z,66.45
2023-06-14T00:15:23.329Z,66.73
2023-06-14T00:16:32.833Z,66.95
2023-06-14T00:17:36.400Z,67.75
2023-06-14T00:18:46.820Z,67.70
2023-06-14T00:19:49.734Z,67.57
2023-06-14T00:20:53.715Z,67.72
2023-06-14T00:21:56.900Z,67.84
2023-06-14T00:22:59.828Z,67.82
2023-06-14T00:24:09.882Z,67.65
2023-06-14T00:25:27.877Z,67.99
2023-06-14T00:26:32.272Z,67.88
2023-06-14T00:27:35.254Z,67.65
2023-06-14T00:28:38.208Z,67.77
2023-06-14T00:29:47.835Z,67.71
2023-06-14T00:30:50.811Z,67.50
2023-06-14T00:31:53.687Z,67.43
2023-06-14T00:32:57.094Z,68.04
2023-06-14T00:34:00.027Z,67.87
2023-06-14T00:35:09.855Z,67.86
2023-06-14T00:36:13.106Z,67.92
2023-06-14T00:37:16.114Z,67.97
2023-06-14T00:38:19.092Z,67.95
2023-06-14T00:39:22.095Z,67.91
2023-06-14T00:40:31.967Z,67.88
2023-06-14T00:41:34.868Z,67.90
2023-06-14T00:42:37.823Z,67.44
2023-06-14T00:43:40.680Z,67.17
2023-06-14T00:44:43.540Z,67.29
2023-06-14T00:45:52.873Z,67.21
2023-06-14T00:46:55.935Z,67.44
2023-06-14T00:47:59.080Z,67.35
2023-06-14T00:49:03.449Z,67.21
2023-06-14T00:50:09.682Z,67.25
2023-06-14T00:51:18.895Z,67.48
2023-06-14T00:52:22.830Z,67.50
2023-06-14T00:53:27.576Z,67.53
2023-06-14T00:54:50.880Z,67.74
2023-06-14T00:55:55.131Z,67.98
2023-06-14T00:57:04.901Z,68.07
2023-06-14T00:58:08.684Z,68.06
2023-06-14T00:59:13.834Z,67.92
2023-06-14T01:00:37.971Z,68.34
2023-06-14T01:01:47.939Z,68.18
2023-06-14T01:02:52.341Z,68.15
2023-06-14T01:03:55.436Z,67.82
2023-06-14T01:04:59.211Z,67.93
2023-06-14T01:06:33.435Z,68.08
2023-06-14T01:08:01.929Z,68.37
2023-06-14T01:09:30.972Z,68.56
2023-06-14T01:11:01.921Z,68.60
2023-06-14T01:12:12.769Z,68.48
2023-06-14T01:13:33.981Z,68.67
2023-06-14T01:14:37.549Z,68.66
2023-06-14T01:15:47.955Z,68.91
2023-06-14T01:16:55.442Z,68.98
2023-06-14T01:18:05.160Z,69.06
2023-06-14T01:19:09.881Z,69.03
2023-06-14T01:20:16.725Z,69.40
2023-06-14T01:21:30.960Z,69.38
2023-06-14T01:22:35.554Z,69.14
2023-06-14T01:23:58.472Z,69.07
2023-06-14T01:25:08.940Z,69.21
2023-06-14T01:26:12.191Z,69.52
2023-06-14T01:27:25.067Z,69.65
2023-06-14T01:28:34.293Z,69.59
2023-06-14T01:29:38.620Z,69.52
2023-06-14T01:30:47.946Z,69.43
2023-06-14T01:31:51.883Z,69.32
2023-06-14T01:33:04.011Z,69.54
2023-06-14T01:34:07.013Z,69.61
2023-06-14T01:35:10.246Z,69.62
2023-06-14T01:36:14.727Z,69.80
2023-06-14T01:37:26.006Z,69.92
2023-06-14T01:38:30.490Z,69.91
2023-06-14T01:39:34.054Z,70.12
2023-06-14T01:40:37.520Z,70.32
2023-06-14T01:42:01.795Z,70.42
2023-06-14T01:43:33.000Z,70.45
2023-06-14T01:44:37.074Z,70.38
2023-06-14T01:45:43.951Z,70.54
2023-06-14T01:46:47.877Z,70.64
2023-06-14T01:47:58.070Z,70.48
2023-06-14T01:49:01.810Z,70.55
2023-06-14T01:50:07.988Z,70.66
2023-06-14T01:51:10.990Z,70.66
2023-06-14T01:52:13.963Z,70.83
2023-06-14T01:53:24.014Z,70.91
2023-06-14T01:54:28.132Z,70.79
2023-06-14T01:55:31.128Z,71.00
2023-06-14T01:56:34.952Z,70.96
2023-06-14T01:57:38.333Z,70.93
2023-06-14T01:58:48.026Z,70.98
2023-06-14T01:59:51.892Z,71.12
2023-06-14T02:01:16.070Z,71.00
2023-06-14T02:02:19.369Z,70.96
2023-06-14T02:03:22.249Z,71.02
2023-06-14T02:04:32.029Z,71.01
2023-06-14T02:05:36.921Z,71.11
2023-06-14T02:06:40.427Z,71.12
2023-06-14T02:07:43.349Z,71.58
2023-06-14T02:08:46.421Z,71.53
2023-06-14T02:09:56.082Z,71.52
2023-06-14T02:10:58.942Z,71.48
2023-06-14T02:12:02.053Z,71.53
2023-06-14T02:13:05.137Z,71.64
2023-06-14T02:14:09.196Z,71.85
2023-06-14T02:15:43.116Z,71.87
2023-06-14T02:16:52.712Z,71.79
2023-06-14T02:18:06.322Z,71.82
2023-06-14T02:19:09.236Z,72.03
2023-06-14T02:20:19.129Z,72.15
2023-06-14T02:21:22.537Z,72.37
2023-06-14T02:22:25.564Z,72.36
2023-06-14T02:23:28.560Z,72.29
2023-06-14T02:24:31.491Z,72.24
2023-06-14T02:25:41.101Z,72.42
2023-06-14T02:26:44.375Z,72.41
2023-06-14T02:27:47.387Z,72.39
2023-06-14T02:28:50.559Z,72.58
2023-06-14T02:29:53.461Z,72.58
2023-06-14T02:31:03.125Z,72.61
2023-06-14T02:32:09.831Z,72.62
2023-06-14T02:33:15.389Z,72.52
2023-06-14T02:34:22.264Z,72.67
2023-06-14T02:35:28.647Z,72.50
2023-06-14T02:36:41.112Z,72.54
2023-06-14T02:37:45.148Z,72.65
2023-06-14T02:38:49.196Z,72.65
2023-06-14T02:39:52.072Z,72.78
2023-06-14T02:40:55.001Z,72.87
2023-06-14T02:42:05.140Z,72.85
2023-06-14T02:43:08.123Z,72.92
2023-06-14T02:44:14.183Z,72.95
2023-06-14T02:45:17.446Z,72.88
2023-06-14T02:46:20.432Z,72.92
2023-06-14T02:47:30.189Z,73.07
2023-06-14T02:48:33.256Z,73.01
2023-06-14T02:49:36.187Z,73.15
2023-06-14T02:50:39.090Z,73.34
2023-06-14T02:51:42.670Z,73.49
2023-06-14T02:52:53.133Z,73.55
2023-06-14T02:53:56.052Z,73.61
2023-06-14T02:54:59.121Z,73.76
2023-06-14T02:56:02.014Z,73.72
2023-06-14T02:57:05.076Z,73.59
2023-06-14T02:58:15.153Z,73.56
2023-06-14T02:59:19.362Z,73.57
2023-06-14T03:00:23.191Z,73.51
2023-06-14T03:01:50.156Z,73.65
2023-06-14T03:03:00.242Z,73.88
2023-06-14T03:04:05.620Z,73.83
2023-06-14T03:05:09.584Z,73.60
2023-06-14T03:06:15.282Z,73.66
2023-06-14T03:07:22.014Z,73.82
2023-06-14T03:08:36.172Z,73.69
2023-06-14T03:09:39.888Z,73.72
2023-06-14T03:10:43.137Z,73.75
2023-06-14T03:11:46.295Z,73.90
2023-06-14T03:13:12.195Z,74.00
2023-06-14T03:14:15.793Z,74.08
2023-06-14T03:15:19.907Z,74.20
2023-06-14T03:16:23.906Z,74.20
2023-06-14T03:17:32.182Z,74.21
2023-06-14T03:18:44.212Z,74.31
2023-06-14T03:19:47.109Z,74.26
2023-06-14T03:21:11.335Z,74.00
2023-06-14T03:22:14.377Z,73.81
2023-06-14T03:23:17.295Z,73.90
2023-06-14T03:24:27.398Z,74.02
2023-06-14T03:25:33.647Z,73.83
2023-06-14T03:26:36.661Z,73.74
2023-06-14T03:27:40.166Z,73.75
2023-06-14T03:28:44.334Z,73.58
2023-06-14T03:29:54.207Z,73.61
2023-06-14T03:30:57.369Z,73.50
2023-06-14T03:32:02.688Z,73.44
2023-06-14T03:33:07.229Z,73.51
2023-06-14T03:34:11.429Z,73.44
2023-06-14T03:35:26.267Z,73.57
2023-06-14T03:36:30.242Z,73.66
2023-06-14T03:37:33.271Z,73.61
2023-06-14T03:38:36.988Z,73.62
2023-06-14T03:39:39.941Z,73.86
2023-06-14T03:40:50.292Z,73.75
2023-06-14T03:41:53.150Z,73.76
2023-06-14T03:42:57.315Z,73.79
2023-06-14T03:44:00.179Z,73.66
2023-06-14T03:45:03.651Z,73.73
2023-06-14T03:46:33.354Z,73.75
2023-06-14T03:47:44.680Z,73.78
2023-06-14T03:49:07.332Z,73.69
2023-06-14T03:50:26.279Z,73.65
2023-06-14T03:51:43.081Z,73.98
2023-06-14T03:52:46.222Z,74.11
2023-06-14T03:54:06.033Z,73.97
2023-06-14T03:56:25.263Z,73.80
2023-06-14T03:57:28.512Z,73.76
2023-06-14T03:58:31.558Z,74.03
2023-06-14T03:59:34.417Z,74.03
2023-06-14T04:00:38.234Z,74.01
2023-06-14T04:01:55.392Z,74.07
2023-06-14T04:03:11.705Z,74.13
2023-06-14T04:04:14.956Z,74.06
2023-06-14T04:05:19.070Z,74.21
2023-06-14T04:06:22.200Z,74.12
2023-06-14T04:07:32.301Z,74.14
2023-06-14T04:08:35.776Z,74.07
2023-06-14T04:09:38.802Z,74.06
2023-06-14T04:10:41.770Z,73.96
2023-06-14T04:11:44.662Z,73.85
2023-06-14T04:12:54.332Z,73.79
2023-06-14T04:13:58.736Z,74.07
2023-06-14T04:15:15.606Z,73.98
2023-06-14T04:16:23.365Z,73.88
2023-06-14T04:17:33.344Z,73.81
2023-06-14T04:18:36.243Z,74.02
2023-06-14T04:19:39.238Z,73.84
2023-06-14T04:20:42.958Z,73.71
2023-06-14T04:21:46.082Z,73.91
2023-06-14T04:22:55.324Z,73.60
2023-06-14T04:23:58.315Z,73.80
2023-06-14T04:25:05.910Z,73.62
2023-06-14T04:26:08.819Z,74.12
2023-06-14T04:27:11.737Z,73.96
2023-06-14T04:28:24.366Z,73.28
2023-06-14T04:29:29.050Z,73.37
2023-06-14T04:30:33.882Z,73.31
2023-06-14T04:31:39.866Z,73.40
2023-06-14T04:32:42.778Z,73.66
2023-06-14T04:33:52.489Z,74.02
2023-06-14T04:34:56.507Z,73.91
2023-06-14T04:35:59.403Z,73.44
2023-06-14T04:37:03.528Z,72.99
2023-06-14T04:38:18.400Z,72.88
2023-06-14T04:39:23.711Z,72.52
2023-06-14T04:40:26.595Z,72.42
2023-06-14T04:41:32.828Z,72.70
2023-06-14T04:42:35.803Z,72.60
2023-06-14T04:43:46.417Z,72.21
2023-06-14T04:44:51.155Z,72.34
2023-06-14T04:45:56.805Z,71.99
2023-06-14T04:47:01.024Z,72.01
2023-06-14T04:48:03.988Z,72.04
2023-06-14T04:49:13.409Z,72.12
2023-06-14T04:50:17.096Z,72.05
2023-06-14T04:51:24.507Z,71.91
2023-06-14T04:52:28.837Z,72.52
2023-06-14T04:53:31.890Z,72.11
2023-06-14T04:54:42.463Z,72.12
2023-06-14T04:55:47.232Z,72.01
2023-06-14T04:56:50.094Z,71.79
2023-06-14T04:57:55.764Z,71.73
2023-06-14T04:58:59.074Z,71.70
2023-06-14T05:00:15.603Z,71.71
2023-06-14T05:01:18.670Z,71.76
2023-06-14T05:02:41.515Z,71.21
2023-06-14T05:03:47.439Z,71.19
2023-06-14T05:04:56.482Z,71.48
2023-06-14T05:05:59.356Z,71.55
2023-06-14T05:07:03.478Z,71.57
2023-06-14T05:08:06.972Z,71.94
2023-06-14T05:09:09.928Z,71.36
2023-06-14T05:10:19.477Z,71.44
2023-06-14T05:11:22.767Z,71.38
2023-06-14T05:12:25.801Z,71.45
2023-06-14T05:13:30.286Z,71.34
2023-06-14T05:14:33.153Z,70.65
2023-06-14T05:15:42.550Z,70.80
2023-06-14T05:16:45.561Z,70.88
2023-06-14T05:17:55.575Z,70.79
2023-06-14T05:18:58.970Z,70.65
2023-06-14T05:20:02.211Z,70.58
2023-06-14T05:21:13.529Z,70.53
2023-06-14T05:22:16.451Z,70.72
2023-06-14T05:23:19.331Z,70.59
2023-06-14T05:24:22.475Z,70.16
2023-06-14T05:25:25.513Z,70.52
2023-06-14T05:26:37.556Z,70.45
2023-06-14T05:27:40.616Z,70.22
2023-06-14T05:28:43.529Z,69.93
2023-06-14T05:29:46.396Z,69.76
2023-06-14T05:30:49.271Z,70.16
2023-06-14T05:31:58.657Z,70.82
2023-06-14T05:33:01.878Z,70.18
2023-06-14T05:34:04.800Z,69.81
2023-06-14T05:35:08.351Z,69.85
2023-06-14T05:36:11.288Z,69.47
2023-06-14T05:37:21.559Z,69.72
2023-06-14T05:38:24.517Z,70.11
2023-06-14T05:39:27.561Z,69.94
2023-06-14T05:40:30.578Z,69.06
2023-06-14T05:41:33.625Z,69.16
2023-06-14T05:42:43.549Z,68.75
2023-06-14T05:43:46.447Z,68.85
2023-06-14T05:44:49.312Z,69.33
2023-06-14T05:45:52.559Z,69.06
2023-06-14T05:46:55.566Z,68.85
2023-06-14T05:48:05.635Z,69.28
2023-06-14T05:49:08.612Z,69.52
2023-06-14T05:50:12.350Z,69.34
2023-06-14T05:51:15.251Z,69.36
2023-06-14T05:52:18.334Z,69.27
2023-06-14T05:53:27.584Z,68.76
2023-06-14T05:54:30.472Z,68.69
2023-06-14T05:55:33.379Z,68.56
2023-06-14T05:56:37.182Z,68.29
2023-06-14T05:57:40.313Z,69.24
2023-06-14T05:58:49.612Z,67.93
2023-06-14T05:59:53.589Z,68.10
2023-06-14T06:00:56.465Z,68.40
2023-06-14T06:01:59.397Z,68.17
2023-06-14T06:03:22.704Z,67.98
2023-06-14T06:04:32.723Z,67.92
2023-06-14T06:05:35.628Z,67.54
2023-06-14T06:06:38.893Z,67.84
2023-06-14T06:07:46.828Z,68.16
2023-06-14T06:08:49.741Z,67.86
2023-06-14T06:09:59.623Z,67.81
2023-06-14T06:11:03.786Z,67.71
2023-06-14T06:12:09.197Z,67.69
2023-06-14T06:13:12.358Z,67.55
2023-06-14T06:14:15.356Z,67.51
2023-06-14T06:15:24.646Z,67.39
2023-06-14T06:16:27.615Z,67.75
2023-06-14T06:17:39.078Z,67.91
2023-06-14T06:18:53.661Z,68.03
2023-06-14T06:20:03.641Z,68.67
2023-06-14T06:21:07.108Z,68.12
2023-06-14T06:22:10.370Z,67.11
2023-06-14T06:23:13.388Z,67.46
2023-06-14T06:24:22.731Z,67.25
2023-06-14T06:25:28.098Z,67.35
2023-06-14T06:26:30.987Z,67.71
2023-06-14T06:27:33.964Z,68.00
2023-06-14T06:28:37.181Z,68.00
2023-06-14T06:29:46.675Z,68.03
2023-06-14T06:30:49.589Z,67.82
2023-06-14T06:31:52.548Z,67.46
2023-06-14T06:32:55.661Z,66.55
2023-06-14T06:33:58.788Z,66.63
2023-06-14T06:35:08.696Z,66.14
2023-06-14T06:36:12.946Z,66.31
2023-06-14T06:37:16.494Z,65.75
2023-06-14T06:38:21.110Z,65.24
2023-06-14T06:39:23.964Z,65.56
2023-06-14T06:40:33.712Z,65.71
2023-06-14T06:41:37.326Z,65.68
2023-06-14T06:42:40.200Z,66.46
2023-06-14T06:43:43.055Z,66.14
2023-06-14T06:44:45.934Z,66.72
2023-06-14T06:45:55.721Z,65.80
2023-06-14T06:47:00.077Z,64.80
2023-06-14T06:48:03.011Z,65.12
2023-06-14T06:49:05.921Z,65.35
2023-06-14T06:50:10.154Z,65.54
2023-06-14T06:51:20.703Z,66.10
2023-06-14T06:52:29.714Z,66.42
2023-06-14T06:53:40.348Z,66.69
2023-06-14T06:54:46.011Z,66.12
2023-06-14T06:55:49.027Z,66.21
2023-06-14T06:56:52.019Z,64.97
2023-06-14T06:58:02.833Z,64.57
2023-06-14T06:59:05.759Z,64.21
2023-06-14T07:00:12.539Z,64.17
2023-06-14T07:01:16.417Z,64.24
2023-06-14T07:02:26.818Z,64.33
2023-06-14T07:03:49.767Z,65.15
2023-06-14T07:04:53.135Z,64.61
2023-06-14T07:05:56.063Z,65.10
2023-06-14T07:07:05.770Z,64.14
2023-06-14T07:08:08.627Z,62.78
2023-06-14T07:09:15.368Z,63.37
2023-06-14T07:10:18.940Z,63.41
2023-06-14T07:11:22.472Z,63.31
2023-06-14T07:12:32.764Z,63.20
2023-06-14T07:13:35.654Z,63.24
2023-06-14T07:14:38.554Z,63.58
2023-06-14T07:15:41.627Z,63.66
2023-06-14T07:16:45.378Z,63.14
2023-06-14T07:17:54.805Z,63.44
2023-06-14T07:18:57.910Z,62.90
2023-06-14T07:20:00.797Z,62.34
2023-06-14T07:21:04.190Z,62.31
2023-06-14T07:22:07.088Z,62.87
2023-06-14T07:23:16.817Z,62.63
2023-06-14T07:24:19.823Z,62.97
2023-06-14T07:25:22.812Z,63.00
2023-06-14T07:26:26.031Z,63.16
2023-06-14T07:27:28.901Z,63.20
2023-06-14T07:28:38.849Z,63.74
2023-06-14T07:29:41.871Z,64.06
2023-06-14T07:30:44.784Z,63.66
2023-06-14T07:31:47.822Z,62.91
2023-06-14T07:32:51.852Z,62.80
2023-06-14T07:34:01.013Z,63.08
2023-06-14T07:35:04.104Z,63.20
2023-06-14T07:36:07.140Z,62.85
2023-06-14T07:37:10.098Z,62.75
2023-06-14T07:38:19.843Z,62.26
2023-06-14T07:39:23.163Z,62.00
2023-06-14T07:40:26.103Z,61.85
2023-06-14T07:41:29.324Z,61.65
2023-06-14T07:42:32.237Z,61.50
2023-06-14T07:43:41.840Z,61.36
2023-06-14T07:44:44.727Z,61.09
2023-06-14T07:46:02.136Z,62.46
2023-06-14T07:47:09.130Z,61.02
2023-06-14T07:48:12.202Z,59.64
2023-06-14T07:49:22.888Z,59.20
2023-06-14T07:50:25.897Z,60.11
2023-06-14T07:51:28.826Z,62.46
2023-06-14T07:52:31.927Z,62.81
2023-06-14T07:53:34.876Z,62.01
2023-06-14T07:54:44.874Z,61.10
2023-06-14T07:55:53.879Z,60.39
2023-06-14T07:56:58.521Z,59.60
2023-06-14T07:58:01.528Z,58.90
2023-06-14T07:59:04.883Z,59.01
2023-06-14T08:00:18.921Z,59.23
2023-06-14T08:01:22.545Z,60.02
2023-06-14T08:02:25.664Z,60.58
2023-06-14T08:03:29.088Z,60.76
2023-06-14T08:04:51.884Z,60.84
2023-06-14T08:06:02.083Z,60.29
2023-06-14T08:07:07.678Z,60.11
2023-06-14T08:08:10.838Z,60.33
2023-06-14T08:09:15.331Z,60.07
2023-06-14T08:10:18.380Z,59.59
2023-06-14T08:11:27.910Z,59.63
2023-06-14T08:12:30.769Z,59.65
2023-06-14T08:13:33.707Z,59.55
2023-06-14T08:14:36.690Z,59.42
2023-06-14T08:15:39.605Z,59.45
2023-06-14T08:16:48.916Z,59.43
2023-06-14T08:17:52.810Z,59.33
2023-06-14T08:18:55.761Z,59.19
2023-06-14T08:19:59.626Z,58.80
2023-06-14T08:21:02.695Z,60.35
2023-06-14T08:22:12.926Z,59.53
2023-06-14T08:23:15.792Z,58.98
2023-06-14T08:24:19.432Z,58.64
2023-06-14T08:25:28.956Z,59.24
2023-06-14T08:26:32.543Z,59.44
2023-06-14T08:27:35.390Z,59.30
2023-06-14T08:28:38.386Z,59.32
2023-06-14T08:29:42.852Z,58.77
2023-06-14T08:30:51.960Z,58.79
2023-06-14T08:31:54.956Z,59.36
2023-06-14T08:33:14.015Z,59.43
2023-06-14T08:34:19.267Z,59.09
2023-06-14T08:35:22.407Z,59.19
2023-06-14T08:36:31.964Z,59.70
2023-06-14T08:37:37.832Z,60.08
2023-06-14T08:38:41.561Z,60.52
2023-06-14T08:39:44.614Z,60.25
2023-06-14T08:40:52.836Z,59.32
2023-06-14T08:42:06.418Z,59.54
2023-06-14T08:43:10.925Z,59.56
2023-06-14T08:44:14.482Z,60.05
2023-06-14T08:45:17.935Z,59.69
2023-06-14T08:46:31.111Z,60.07
2023-06-14T08:47:41.822Z,59.47
2023-06-14T08:48:45.520Z,59.42
2023-06-14T08:49:50.413Z,59.49
2023-06-14T08:50:55.412Z,59.62
2023-06-14T08:52:09.111Z,59.86
2023-06-14T08:53:21.943Z,60.59
2023-06-14T08:54:26.464Z,59.46
2023-06-14T08:55:32.966Z,59.56
2023-06-14T08:56:47.124Z,59.18
2023-06-14T08:57:51.727Z,59.62
2023-06-14T08:58:55.086Z,59.30
2023-06-14T08:59:59.336Z,56.10
2023-06-14T09:01:04.126Z,56.97
2023-06-14T09:02:15.141Z,57.86
2023-06-14T09:03:19.482Z,57.80
2023-06-14T09:04:26.520Z,57.88
2023-06-14T09:05:49.141Z,58.12
2023-06-14T09:06:55.221Z,57.95
2023-06-14T09:08:06.898Z,56.70
2023-06-14T09:09:10.121Z,57.22
2023-06-14T09:10:15.417Z,57.74
2023-06-14T09:11:23.695Z,58.38
2023-06-14T09:12:33.159Z,58.50
2023-06-14T09:13:36.031Z,57.43
2023-06-14T09:14:40.897Z,56.71
2023-06-14T09:15:44.401Z,56.56
2023-06-14T09:16:47.789Z,57.52
2023-06-14T09:17:57.192Z,56.88
2023-06-14T09:19:00.516Z,57.01
2023-06-14T09:20:20.605Z,57.19
2023-06-14T09:21:24.014Z,55.94
2023-06-14T09:22:26.950Z,55.53
2023-06-14T09:23:36.184Z,55.93
2023-06-14T09:24:39.169Z,56.62
2023-06-14T09:25:46.412Z,57.94
2023-06-14T09:26:50.106Z,58.16
2023-06-14T09:27:53.956Z,56.23
2023-06-14T09:29:04.165Z,55.29
2023-06-14T09:30:11.598Z,54.28
2023-06-14T09:31:16.657Z,53.71
2023-06-14T09:32:19.599Z,53.66
2023-06-14T09:33:22.891Z,54.42
2023-06-14T09:34:33.180Z,51.13
2023-06-14T09:35:36.310Z,51.58
2023-06-14T09:36:39.835Z,51.24
2023-06-14T09:37:43.293Z,51.58
2023-06-14T09:39:26.233Z,52.26
2023-06-14T09:40:29.553Z,54.07
2023-06-14T09:41:40.108Z,54.41
2023-06-14T09:42:44.014Z,54.30
2023-06-14T09:43:49.366Z,53.06
2023-06-14T09:44:59.236Z,53.40
2023-06-14T09:46:07.186Z,54.13
2023-06-14T09:47:10.578Z,55.96
2023-06-14T09:48:14.369Z,56.56
2023-06-14T09:49:17.483Z,56.61
2023-06-14T09:50:27.301Z,57.30
2023-06-14T09:51:34.322Z,57.47
2023-06-14T09:52:37.866Z,55.82
2023-06-14T09:53:43.687Z,53.65
2023-06-14T09:54:49.768Z,55.25
2023-06-14T09:56:03.268Z,50.58
2023-06-14T09:57:09.299Z,51.46
2023-06-14T09:58:13.082Z,52.06
2023-06-14T09:59:21.482Z,53.19
2023-06-14T10:00:26.637Z,54.36
2023-06-14T10:01:39.269Z,54.83
2023-06-14T10:02:56.320Z,54.82
2023-06-14T10:04:11.143Z,54.50
2023-06-14T10:05:18.482Z,54.40
2023-06-14T10:06:42.270Z,52.16
2023-06-14T10:07:57.256Z,51.28
2023-06-14T10:09:02.431Z,50.27
2023-06-14T10:10:05.574Z,51.07
2023-06-14T10:11:09.310Z,50.31
2023-06-14T10:12:13.026Z,50.85
2023-06-14T10:13:23.248Z,51.84
2023-06-14T10:14:26.326Z,53.06
2023-06-14T10:15:50.548Z,52.57
2023-06-14T10:17:29.703Z,50.91
2023-06-14T10:18:51.307Z,50.95
2023-06-14T10:20:22.357Z,50.09
2023-06-14T10:21:39.240Z,51.85
2023-06-14T10:23:04.330Z,51.11
2023-06-14T10:24:10.334Z,51.33
2023-06-14T10:25:30.178Z,49.72
2023-06-14T10:26:33.438Z,48.86
2023-06-14T10:27:37.957Z,49.00
2023-06-14T10:28:47.312Z,49.03
2023-06-14T10:29:56.286Z,48.60
2023-06-14T10:31:09.779Z,50.05
2023-06-14T10:32:12.888Z,50.10
2023-06-14T10:33:18.001Z,48.35
2023-06-14T10:34:35.349Z,49.09
2023-06-14T10:35:38.373Z,46.81
2023-06-14T10:36:45.798Z,45.77
2023-06-14T10:37:49.301Z,45.24
2023-06-14T10:39:15.355Z,47.24
2023-06-14T10:40:33.598Z,45.59
2023-06-14T10:41:40.998Z,46.34
2023-06-14T10:42:53.914Z,47.31
2023-06-14T10:44:21.333Z,48.74
2023-06-14T10:45:24.216Z,47.43
2023-06-14T10:46:31.561Z,45.11
2023-06-14T10:47:40.047Z,46.35
2023-06-14T10:48:44.396Z,43.86
2023-06-14T10:49:57.369Z,46.94
2023-06-14T10:51:04.655Z,45.16
2023-06-14T10:52:08.942Z,42.58
2023-06-14T10:53:27.584Z,41.76
2023-06-14T10:54:30.467Z,43.04
2023-06-14T10:55:44.391Z,45.78
2023-06-14T10:56:52.011Z,43.97
2023-06-14T10:58:00.876Z,43.13
2023-06-14T10:59:03.809Z,43.76
2023-06-14T11:00:22.388Z,45.25
2023-06-14T11:01:59.965Z,44.21
2023-06-14T11:03:44.284Z,43.79
2023-06-14T11:04:54.858Z,42.68
2023-06-14T11:06:06.385Z,42.04
2023-06-14T11:07:59.456Z,42.89
2023-06-14T11:09:36.651Z,44.55
2023-06-14T11:10:48.422Z,40.52
2023-06-14T11:11:53.520Z,44.41
2023-06-14T11:12:57.446Z,44.24
2023-06-14T11:14:02.453Z,44.07
2023-06-14T11:15:05.631Z,46.58
2023-06-14T11:16:23.488Z,45.32
2023-06-14T11:17:26.810Z,43.70
2023-06-14T11:18:31.103Z,46.62
2023-06-14T11:19:34.209Z,44.85
2023-06-14T11:20:39.607Z,46.22
2023-06-14T11:21:49.443Z,46.06
2023-06-14T11:22:52.347Z,45.97
2023-06-14T11:23:56.861Z,45.14
2023-06-14T11:25:02.697Z,43.31
2023-06-14T11:26:13.431Z,42.85
2023-06-14T11:27:16.466Z,41.90
2023-06-14T11:28:21.903Z,43.03
2023-06-14T11:29:24.844Z,44.25
2023-06-14T11:30:28.096Z,44.63
2023-06-14T11:31:37.542Z,43.64
2023-06-14T11:32:40.892Z,41.99
2023-06-14T11:33:43.888Z,40.51
2023-06-14T11:34:49.190Z,40.69
2023-06-14T11:35:52.087Z,41.51
2023-06-14T11:37:01.478Z,42.62
2023-06-14T11:38:04.686Z,40.80
2023-06-14T11:39:11.604Z,40.92
2023-06-14T11:40:14.955Z,41.42
2023-06-14T11:41:24.494Z,41.35
2023-06-14T11:42:30.302Z,41.15
2023-06-14T11:43:35.935Z,41.61
2023-06-14T11:44:38.837Z,42.53
2023-06-14T11:45:41.885Z,41.85
2023-06-14T11:46:51.542Z,40.99
2023-06-14T11:47:57.680Z,42.79
2023-06-14T11:49:00.803Z,42.00
2023-06-14T11:50:04.888Z,42.63
2023-06-14T11:51:07.873Z,43.26
2023-06-14T11:52:17.528Z,42.77
2023-06-14T11:53:20.677Z,42.88
2023-06-14T11:54:23.663Z,41.51
2023-06-14T11:55:27.170Z,40.63
2023-06-14T11:56:36.518Z,40.44
2023-06-14T11:57:41.195Z,41.11
2023-06-14T11:58:46.138Z,38.26
2023-06-14T11:59:49.664Z,38.81
2023-06-14T12:00:53.023Z,38.92
2023-06-14T12:02:05.552Z,39.08
2023-06-14T12:03:09.399Z,39.36
2023-06-14T12:04:12.382Z,40.14
2023-06-14T12:05:15.518Z,41.94
2023-06-14T12:06:20.288Z,42.47
2023-06-14T12:07:31.559Z,42.72
2023-06-14T12:08:54.573Z,41.57
2023-06-14T12:09:57.959Z,41.10
2023-06-14T12:11:00.944Z,42.21
2023-06-14T12:12:03.886Z,42.04
2023-06-14T12:13:14.555Z,42.42
2023-06-14T12:14:18.972Z,42.41
2023-06-14T12:15:22.730Z,41.95
2023-06-14T12:16:34.080Z,42.00
2023-06-14T12:17:54.673Z,41.41
2023-06-14T12:18:57.637Z,42.21
2023-06-14T12:20:00.554Z,42.61
2023-06-14T12:21:07.392Z,42.49
2023-06-14T12:22:12.538Z,43.47
2023-06-14T12:23:21.598Z,43.38
2023-06-14T12:24:31.909Z,43.99
2023-06-14T12:25:37.814Z,43.90
2023-06-14T12:26:49.632Z,43.56
2023-06-14T12:27:53.060Z,42.89
2023-06-14T12:28:56.492Z,43.91
2023-06-14T12:30:05.970Z,45.06
2023-06-14T12:31:09.522Z,45.97
2023-06-14T12:32:19.789Z,46.10
2023-06-14T12:33:23.009Z,46.62
2023-06-14T12:34:26.712Z,46.28
2023-06-14T12:35:29.637Z,46.72
2023-06-14T12:36:40.649Z,47.16
2023-06-14T12:37:43.528Z,46.31
2023-06-14T12:38:47.927Z,46.38
2023-06-14T12:39:50.877Z,46.39
2023-06-14T12:40:54.980Z,46.65
2023-06-14T12:42:04.621Z,47.11
2023-06-14T12:43:07.967Z,47.15
2023-06-14T12:44:10.911Z,47.11
2023-06-14T12:45:13.919Z,47.43
2023-06-14T12:46:17.348Z,48.19
2023-06-14T12:47:26.655Z,49.00
2023-06-14T12:48:29.992Z,46.64
2023-06-14T12:49:32.857Z,46.14
2023-06-14T12:50:35.816Z,46.27
2023-06-14T12:51:39.351Z,46.45
2023-06-14T12:52:48.680Z,46.68
2023-06-14T12:53:51.746Z,46.75
2023-06-14T12:54:54.643Z,46.79
2023-06-14T12:55:57.597Z,47.15
2023-06-14T12:57:00.561Z,47.17
2023-06-14T12:58:10.671Z,46.72
2023-06-14T12:59:13.588Z,46.89
2023-06-14T13:00:17.368Z,46.82
2023-06-14T13:01:21.440Z,46.51
2023-06-14T13:02:26.415Z,46.75
2023-06-14T13:03:36.884Z,47.03
2023-06-14T13:04:39.915Z,46.49
2023-06-14T13:05:43.244Z,46.04
2023-06-14T13:06:46.178Z,46.08
2023-06-14T13:07:49.087Z,46.36
2023-06-14T13:09:06.787Z,46.29
2023-06-14T13:10:17.360Z,46.49
2023-06-14T13:11:20.424Z,46.32
2023-06-14T13:12:23.407Z,46.67
2023-06-14T13:13:26.329Z,46.62
2023-06-14T13:14:35.788Z,46.82
2023-06-14T13:15:38.727Z,46.09
2023-06-14T13:16:41.665Z,46.34
2023-06-14T13:17:46.141Z,46.62
2023-06-14T13:18:49.067Z,47.31
2023-06-14T13:19:58.808Z,50.77
2023-06-14T13:21:01.798Z,49.75
2023-06-14T13:22:05.244Z,48.62
2023-06-14T13:23:09.799Z,47.85
2023-06-14T13:24:12.822Z,47.57
2023-06-14T13:25:22.796Z,47.80
2023-06-14T13:26:32.778Z,48.53
2023-06-14T13:27:35.672Z,48.28
2023-06-14T13:28:38.572Z,48.23
2023-06-14T13:29:41.440Z,47.24
2023-06-14T13:30:44.531Z,47.02
2023-06-14T13:31:53.844Z,46.42
2023-06-14T13:32:58.406Z,48.87
2023-06-14T13:34:01.375Z,47.89
2023-06-14T13:35:04.325Z,47.71
2023-06-14T13:36:13.845Z,47.52
2023-06-14T13:37:16.953Z,47.52
2023-06-14T13:38:19.826Z,46.64
2023-06-14T13:39:22.899Z,47.11
2023-06-14T13:40:25.887Z,49.68
2023-06-14T13:41:42.876Z,48.23
2023-06-14T13:42:46.021Z,46.59
2023-06-14T13:43:48.906Z,46.24
2023-06-14T13:44:53.800Z,45.34
2023-06-14T13:45:56.998Z,45.61
2023-06-14T13:47:06.839Z,46.19
2023-06-14T13:48:09.823Z,44.96
2023-06-14T13:49:12.920Z,46.72
2023-06-14T13:50:16.074Z,47.36
2023-06-14T13:51:21.335Z,48.27
2023-06-14T13:52:30.861Z,47.86
2023-06-14T13:53:34.088Z,48.62
2023-06-14T13:54:37.031Z,47.31
2023-06-14T13:55:39.931Z,46.75
2023-06-14T13:56:43.078Z,48.72
2023-06-14T13:57:53.869Z,48.13
2023-06-14T13:58:56.839Z,47.68
2023-06-14T14:00:03.408Z,47.50
2023-06-14T14:01:06.532Z,46.56
2023-06-14T14:02:09.854Z,46.87
2023-06-14T14:03:19.957Z,46.40
2023-06-14T14:04:22.959Z,45.97
2023-06-14T14:05:31.032Z,46.28
2023-06-14T14:06:34.455Z,44.36
2023-06-14T14:07:38.478Z,45.22
2023-06-14T14:08:47.972Z,46.19
2023-06-14T14:10:10.984Z,45.74
2023-06-14T14:11:14.770Z,45.82
2023-06-14T14:12:17.703Z,46.20
2023-06-14T14:13:20.651Z,46.71
2023-06-14T14:14:30.002Z,45.79
2023-06-14T14:15:32.862Z,45.15
2023-06-14T14:16:35.887Z,45.38
2023-06-14T14:17:39.055Z,45.08
2023-06-14T14:18:42.161Z,42.29
2023-06-14T14:19:52.031Z,42.90
2023-06-14T14:20:54.979Z,43.47
2023-06-14T14:21:57.930Z,43.33
2023-06-14T14:23:01.921Z,43.26